sensor_id;sensor_type;location;lat;lon;timestamp;P1;durP1;ratioP1;P2;durP2;ratioP2
27796;SDS011;15177;50.844;4.412;2023-04-25T00:01:34;15.10;;;4.80;;
27796;SDS011;15177;50.844;4.412;2023-04-25T00:04:01;26.63;;;5.67;;
27796;SDS011;15177;50.844;4.412;2023-04-25T00:06:29;24.33;;;4.90;;
27796;SDS011;15177;50.844;4.412;2023-04-25T00:08:56;21.73;;;4.77;;
27796;SDS011;15177;50.844;4.412;2023-04-25T00:11:22;23.63;;;5.00;;
27796;SDS011;15177;50.844;4.412;2023-04-25T00:13:49;24.00;;;5.47;;
27796;SDS011;15177;50.844;4.412;2023-04-25T00:16:15;16.37;;;5.03;;
27796;SDS011;15177;50.844;4.412;2023-04-25T00:18:41;15.87;;;4.60;;
27796;SDS011;15177;50.844;4.412;2023-04-25T00:21:08;17.97;;;4.10;;
27796;SDS011;15177;50.844;4.412;2023-04-25T00:23:33;20.47;;;4.50;;
27796;SDS011;15177;50.844;4.412;2023-04-25T00:26:01;15.30;;;4.53;;
27796;SDS011;15177;50.844;4.412;2023-04-25T00:28:27;18.63;;;5.13;;
27796;SDS011;15177;50.844;4.412;2023-04-25T00:30:53;15.60;;;4.77;;
27796;SDS011;15177;50.844;4.412;2023-04-25T00:33:18;22.07;;;5.07;;
27796;SDS011;15177;50.844;4.412;2023-04-25T00:35:47;15.97;;;5.13;;
27796;SDS011;15177;50.844;4.412;2023-04-25T00:38:13;22.17;;;5.07;;
27796;SDS011;15177;50.844;4.412;2023-04-25T00:40:38;23.90;;;5.33;;
27796;SDS011;15177;50.844;4.412;2023-04-25T00:43:04;17.97;;;5.10;;
27796;SDS011;15177;50.844;4.412;2023-04-25T00:45:30;30.63;;;5.57;;
27796;SDS011;15177;50.844;4.412;2023-04-25T00:47:56;19.90;;;5.10;;
27796;SDS011;15177;50.844;4.412;2023-04-25T00:50:22;18.53;;;4.70;;
27796;SDS011;15177;50.844;4.412;2023-04-25T00:52:48;20.70;;;5.70;;
27796;SDS011;15177;50.844;4.412;2023-04-25T00:55:15;20.53;;;5.67;;
27796;SDS011;15177;50.844;4.412;2023-04-25T00:57:41;26.33;;;5.23;;
27796;SDS011;15177;50.844;4.412;2023-04-25T01:00:07;24.13;;;6.07;;
27796;SDS011;15177;50.844;4.412;2023-04-25T01:02:34;29.93;;;5.70;;
27796;SDS011;15177;50.844;4.412;2023-04-25T01:05:00;26.30;;;6.03;;
27796;SDS011;15177;50.844;4.412;2023-04-25T01:07:27;19.37;;;5.30;;
27796;SDS011;15177;50.844;4.412;2023-04-25T01:09:53;26.10;;;6.47;;
27796;SDS011;15177;50.844;4.412;2023-04-25T01:12:18;23.63;;;5.50;;
27796;SDS011;15177;50.844;4.412;2023-04-25T01:14:44;18.90;;;5.63;;
27796;SDS011;15177;50.844;4.412;2023-04-25T01:17:11;20.60;;;5.67;;
27796;SDS011;15177;50.844;4.412;2023-04-25T01:19:37;16.63;;;5.30;;
27796;SDS011;15177;50.844;4.412;2023-04-25T01:22:03;29.87;;;5.87;;
27796;SDS011;15177;50.844;4.412;2023-04-25T01:24:29;21.30;;;5.57;;
27796;SDS011;15177;50.844;4.412;2023-04-25T01:26:56;19.67;;;6.13;;
27796;SDS011;15177;50.844;4.412;2023-04-25T01:29:23;23.67;;;5.33;;
27796;SDS011;15177;50.844;4.412;2023-04-25T01:31:49;31.47;;;5.57;;
27796;SDS011;15177;50.844;4.412;2023-04-25T01:34:17;19.07;;;6.27;;
27796;SDS011;15177;50.844;4.412;2023-04-25T01:36:42;19.83;;;5.30;;
27796;SDS011;15177;50.844;4.412;2023-04-25T01:39:08;19.60;;;5.90;;
27796;SDS011;15177;50.844;4.412;2023-04-25T01:41:35;22.03;;;5.93;;
27796;SDS011;15177;50.844;4.412;2023-04-25T01:44:02;27.17;;;6.00;;
27796;SDS011;15177;50.844;4.412;2023-04-25T01:46:28;23.57;;;5.63;;
27796;SDS011;15177;50.844;4.412;2023-04-25T01:48:54;25.60;;;6.40;;
27796;SDS011;15177;50.844;4.412;2023-04-25T01:51:20;26.23;;;6.77;;
27796;SDS011;15177;50.844;4.412;2023-04-25T01:53:46;30.97;;;6.23;;
27796;SDS011;15177;50.844;4.412;2023-04-25T01:56:11;23.77;;;5.83;;
27796;SDS011;15177;50.844;4.412;2023-04-25T01:58:37;21.73;;;6.33;;
27796;SDS011;15177;50.844;4.412;2023-04-25T02:01:03;16.47;;;5.87;;
27796;SDS011;15177;50.844;4.412;2023-04-25T02:03:29;23.33;;;6.07;;
27796;SDS011;15177;50.844;4.412;2023-04-25T02:05:56;20.87;;;6.10;;
27796;SDS011;15177;50.844;4.412;2023-04-25T02:08:21;28.90;;;6.53;;
27796;SDS011;15177;50.844;4.412;2023-04-25T02:10:47;25.43;;;6.27;;
27796;SDS011;15177;50.844;4.412;2023-04-25T02:13:14;21.07;;;6.17;;
27796;SDS011;15177;50.844;4.412;2023-04-25T02:15:41;23.77;;;5.97;;
27796;SDS011;15177;50.844;4.412;2023-04-25T02:18:06;26.17;;;6.00;;
27796;SDS011;15177;50.844;4.412;2023-04-25T02:20:32;28.97;;;6.83;;
27796;SDS011;15177;50.844;4.412;2023-04-25T02:22:58;19.23;;;6.00;;
27796;SDS011;15177;50.844;4.412;2023-04-25T02:25:24;22.13;;;6.37;;
27796;SDS011;15177;50.844;4.412;2023-04-25T02:27:51;22.87;;;6.87;;
27796;SDS011;15177;50.844;4.412;2023-04-25T02:30:16;26.63;;;6.13;;
27796;SDS011;15177;50.844;4.412;2023-04-25T02:32:42;27.87;;;6.40;;
27796;SDS011;15177;50.844;4.412;2023-04-25T02:35:09;18.27;;;6.13;;
27796;SDS011;15177;50.844;4.412;2023-04-25T02:37:37;26.57;;;6.87;;
27796;SDS011;15177;50.844;4.412;2023-04-25T02:40:05;19.37;;;6.27;;
27796;SDS011;15177;50.844;4.412;2023-04-25T02:42:33;19.97;;;5.93;;
27796;SDS011;15177;50.844;4.412;2023-04-25T02:44:59;26.00;;;7.00;;
27796;SDS011;15177;50.844;4.412;2023-04-25T02:47:24;37.43;;;6.83;;
27796;SDS011;15177;50.844;4.412;2023-04-25T02:49:51;29.77;;;6.17;;
27796;SDS011;15177;50.844;4.412;2023-04-25T02:52:17;29.50;;;6.20;;
27796;SDS011;15177;50.844;4.412;2023-04-25T02:54:42;20.00;;;5.70;;
27796;SDS011;15177;50.844;4.412;2023-04-25T02:57:08;22.83;;;6.00;;
27796;SDS011;15177;50.844;4.412;2023-04-25T02:59:35;16.00;;;5.83;;
27796;SDS011;15177;50.844;4.412;2023-04-25T03:02:01;23.77;;;6.57;;
27796;SDS011;15177;50.844;4.412;2023-04-25T03:04:27;18.63;;;5.93;;
27796;SDS011;15177;50.844;4.412;2023-04-25T03:06:53;23.77;;;6.23;;
27796;SDS011;15177;50.844;4.412;2023-04-25T03:09:19;21.23;;;6.23;;
27796;SDS011;15177;50.844;4.412;2023-04-25T03:11:45;27.40;;;6.37;;
27796;SDS011;15177;50.844;4.412;2023-04-25T03:14:11;32.00;;;7.93;;
27796;SDS011;15177;50.844;4.412;2023-04-25T03:16:37;24.47;;;6.07;;
27796;SDS011;15177;50.844;4.412;2023-04-25T03:19:03;22.40;;;5.77;;
27796;SDS011;15177;50.844;4.412;2023-04-25T03:21:31;26.47;;;7.07;;
27796;SDS011;15177;50.844;4.412;2023-04-25T03:23:58;25.17;;;7.10;;
27796;SDS011;15177;50.844;4.412;2023-04-25T03:26:24;22.17;;;6.97;;
27796;SDS011;15177;50.844;4.412;2023-04-25T03:28:49;21.00;;;6.60;;
27796;SDS011;15177;50.844;4.412;2023-04-25T03:31:15;18.30;;;5.80;;
27796;SDS011;15177;50.844;4.412;2023-04-25T03:33:43;18.63;;;5.80;;
27796;SDS011;15177;50.844;4.412;2023-04-25T03:36:08;23.37;;;5.77;;
27796;SDS011;15177;50.844;4.412;2023-04-25T03:38:34;27.30;;;5.40;;
27796;SDS011;15177;50.844;4.412;2023-04-25T03:41:00;20.27;;;5.37;;
27796;SDS011;15177;50.844;4.412;2023-04-25T03:43:27;24.00;;;5.73;;
27796;SDS011;15177;50.844;4.412;2023-04-25T03:45:54;25.00;;;5.53;;
27796;SDS011;15177;50.844;4.412;2023-04-25T03:48:20;19.17;;;5.87;;
27796;SDS011;15177;50.844;4.412;2023-04-25T03:50:49;14.97;;;5.47;;
27796;SDS011;15177;50.844;4.412;2023-04-25T03:53:15;26.47;;;5.73;;
27796;SDS011;15177;50.844;4.412;2023-04-25T03:55:41;24.63;;;5.47;;
27796;SDS011;15177;50.844;4.412;2023-04-25T03:58:06;24.53;;;6.40;;
27796;SDS011;15177;50.844;4.412;2023-04-25T04:00:35;20.40;;;5.47;;
27796;SDS011;15177;50.844;4.412;2023-04-25T04:03:01;22.77;;;6.80;;
27796;SDS011;15177;50.844;4.412;2023-04-25T04:05:27;19.50;;;5.53;;
27796;SDS011;15177;50.844;4.412;2023-04-25T04:07:54;28.63;;;6.33;;
27796;SDS011;15177;50.844;4.412;2023-04-25T04:10:20;21.23;;;7.10;;
27796;SDS011;15177;50.844;4.412;2023-04-25T04:12:46;28.53;;;7.03;;
27796;SDS011;15177;50.844;4.412;2023-04-25T04:15:12;28.43;;;7.00;;
27796;SDS011;15177;50.844;4.412;2023-04-25T04:17:38;21.80;;;7.10;;
27796;SDS011;15177;50.844;4.412;2023-04-25T04:20:04;27.47;;;6.43;;
27796;SDS011;15177;50.844;4.412;2023-04-25T04:22:31;18.97;;;5.87;;
27796;SDS011;15177;50.844;4.412;2023-04-25T04:24:57;15.00;;;5.70;;
27796;SDS011;15177;50.844;4.412;2023-04-25T04:27:23;20.43;;;5.77;;
27796;SDS011;15177;50.844;4.412;2023-04-25T04:29:51;18.83;;;5.80;;
27796;SDS011;15177;50.844;4.412;2023-04-25T04:32:18;21.67;;;5.30;;
27796;SDS011;15177;50.844;4.412;2023-04-25T04:34:43;25.33;;;5.90;;
27796;SDS011;15177;50.844;4.412;2023-04-25T04:37:09;22.70;;;6.00;;
27796;SDS011;15177;50.844;4.412;2023-04-25T04:39:35;22.13;;;5.80;;
27796;SDS011;15177;50.844;4.412;2023-04-25T04:42:01;23.53;;;5.43;;
27796;SDS011;15177;50.844;4.412;2023-04-25T04:44:28;20.17;;;6.63;;
27796;SDS011;15177;50.844;4.412;2023-04-25T04:46:54;24.13;;;5.17;;
27796;SDS011;15177;50.844;4.412;2023-04-25T04:49:20;23.00;;;5.60;;
27796;SDS011;15177;50.844;4.412;2023-04-25T04:51:46;19.67;;;5.73;;
27796;SDS011;15177;50.844;4.412;2023-04-25T04:54:12;22.33;;;6.10;;
27796;SDS011;15177;50.844;4.412;2023-04-25T04:56:38;20.13;;;5.70;;
27796;SDS011;15177;50.844;4.412;2023-04-25T04:59:04;20.40;;;6.93;;
27796;SDS011;15177;50.844;4.412;2023-04-25T05:01:30;26.73;;;6.57;;
27796;SDS011;15177;50.844;4.412;2023-04-25T05:03:56;21.90;;;6.70;;
27796;SDS011;15177;50.844;4.412;2023-04-25T05:06:25;28.40;;;6.57;;
27796;SDS011;15177;50.844;4.412;2023-04-25T05:08:51;23.27;;;6.27;;
27796;SDS011;15177;50.844;4.412;2023-04-25T05:11:19;18.53;;;5.67;;
27796;SDS011;15177;50.844;4.412;2023-04-25T05:13:45;17.27;;;6.57;;
27796;SDS011;15177;50.844;4.412;2023-04-25T05:16:12;25.73;;;7.63;;
27796;SDS011;15177;50.844;4.412;2023-04-25T05:18:38;21.57;;;6.77;;
27796;SDS011;15177;50.844;4.412;2023-04-25T05:21:04;27.50;;;7.53;;
27796;SDS011;15177;50.844;4.412;2023-04-25T05:23:30;23.83;;;7.73;;
27796;SDS011;15177;50.844;4.412;2023-04-25T05:25:57;26.03;;;7.37;;
27796;SDS011;15177;50.844;4.412;2023-04-25T05:28:24;21.77;;;5.37;;
27796;SDS011;15177;50.844;4.412;2023-04-25T05:30:53;19.13;;;4.20;;
27796;SDS011;15177;50.844;4.412;2023-04-25T05:33:19;14.70;;;4.90;;
27796;SDS011;15177;50.844;4.412;2023-04-25T05:35:45;15.50;;;4.50;;
27796;SDS011;15177;50.844;4.412;2023-04-25T05:38:13;22.37;;;5.23;;
27796;SDS011;15177;50.844;4.412;2023-04-25T05:40:39;19.97;;;4.83;;
27796;SDS011;15177;50.844;4.412;2023-04-25T05:43:05;18.03;;;5.47;;
27796;SDS011;15177;50.844;4.412;2023-04-25T05:45:32;13.53;;;3.37;;
27796;SDS011;15177;50.844;4.412;2023-04-25T05:47:59;12.43;;;3.97;;
27796;SDS011;15177;50.844;4.412;2023-04-25T05:50:26;13.30;;;3.90;;
27796;SDS011;15177;50.844;4.412;2023-04-25T05:52:52;20.57;;;4.30;;
27796;SDS011;15177;50.844;4.412;2023-04-25T05:55:17;24.33;;;4.30;;
27796;SDS011;15177;50.844;4.412;2023-04-25T05:57:45;15.93;;;4.40;;
27796;SDS011;15177;50.844;4.412;2023-04-25T06:00:14;14.23;;;4.63;;
27796;SDS011;15177;50.844;4.412;2023-04-25T06:02:40;20.07;;;5.30;;
27796;SDS011;15177;50.844;4.412;2023-04-25T06:05:07;15.30;;;5.00;;
27796;SDS011;15177;50.844;4.412;2023-04-25T06:07:33;27.27;;;5.63;;
27796;SDS011;15177;50.844;4.412;2023-04-25T06:09:59;21.77;;;5.67;;
27796;SDS011;15177;50.844;4.412;2023-04-25T06:12:27;18.37;;;5.63;;
27796;SDS011;15177;50.844;4.412;2023-04-25T06:14:52;20.67;;;6.03;;
27796;SDS011;15177;50.844;4.412;2023-04-25T06:17:18;18.23;;;5.17;;
27796;SDS011;15177;50.844;4.412;2023-04-25T06:19:43;26.33;;;6.33;;
27796;SDS011;15177;50.844;4.412;2023-04-25T06:22:09;26.07;;;6.37;;
27796;SDS011;15177;50.844;4.412;2023-04-25T06:24:35;26.50;;;6.67;;
27796;SDS011;15177;50.844;4.412;2023-04-25T06:27:01;33.03;;;7.50;;
27796;SDS011;15177;50.844;4.412;2023-04-25T06:29:26;26.37;;;6.90;;
27796;SDS011;15177;50.844;4.412;2023-04-25T06:31:52;22.17;;;6.97;;
27796;SDS011;15177;50.844;4.412;2023-04-25T06:34:18;25.00;;;7.47;;
27796;SDS011;15177;50.844;4.412;2023-04-25T06:36:44;21.23;;;7.20;;
27796;SDS011;15177;50.844;4.412;2023-04-25T06:39:09;29.90;;;7.87;;
27796;SDS011;15177;50.844;4.412;2023-04-25T06:41:35;14.73;;;7.30;;
27796;SDS011;15177;50.844;4.412;2023-04-25T06:44:01;22.90;;;8.33;;
27796;SDS011;15177;50.844;4.412;2023-04-25T06:46:27;25.03;;;8.83;;
27796;SDS011;15177;50.844;4.412;2023-04-25T06:48:53;18.80;;;6.87;;
27796;SDS011;15177;50.844;4.412;2023-04-25T06:51:19;24.00;;;7.23;;
27796;SDS011;15177;50.844;4.412;2023-04-25T06:53:45;23.27;;;6.20;;
27796;SDS011;15177;50.844;4.412;2023-04-25T06:56:11;16.70;;;5.33;;
27796;SDS011;15177;50.844;4.412;2023-04-25T06:58:37;18.67;;;5.53;;
27796;SDS011;15177;50.844;4.412;2023-04-25T07:01:03;19.50;;;6.07;;
27796;SDS011;15177;50.844;4.412;2023-04-25T07:03:30;18.50;;;5.67;;
27796;SDS011;15177;50.844;4.412;2023-04-25T07:05:56;14.20;;;4.20;;
27796;SDS011;15177;50.844;4.412;2023-04-25T07:08:21;19.67;;;4.73;;
27796;SDS011;15177;50.844;4.412;2023-04-25T07:10:50;21.50;;;5.03;;
27796;SDS011;15177;50.844;4.412;2023-04-25T07:13:16;23.03;;;4.63;;
27796;SDS011;15177;50.844;4.412;2023-04-25T07:15:41;21.50;;;4.50;;
27796;SDS011;15177;50.844;4.412;2023-04-25T07:18:08;12.90;;;3.80;;
27796;SDS011;15177;50.844;4.412;2023-04-25T07:20:34;16.73;;;3.73;;
27796;SDS011;15177;50.844;4.412;2023-04-25T07:22:59;20.50;;;4.03;;
27796;SDS011;15177;50.844;4.412;2023-04-25T07:25:25;13.13;;;3.90;;
27796;SDS011;15177;50.844;4.412;2023-04-25T07:27:51;22.60;;;4.40;;
27796;SDS011;15177;50.844;4.412;2023-04-25T07:30:18;15.00;;;3.77;;
27796;SDS011;15177;50.844;4.412;2023-04-25T07:32:44;15.30;;;4.00;;
27796;SDS011;15177;50.844;4.412;2023-04-25T07:35:10;21.07;;;4.00;;
27796;SDS011;15177;50.844;4.412;2023-04-25T07:37:36;15.53;;;3.93;;
27796;SDS011;15177;50.844;4.412;2023-04-25T07:40:02;14.27;;;4.43;;
27796;SDS011;15177;50.844;4.412;2023-04-25T07:42:29;10.90;;;3.53;;
27796;SDS011;15177;50.844;4.412;2023-04-25T07:44:58;12.00;;;3.77;;
27796;SDS011;15177;50.844;4.412;2023-04-25T07:47:25;13.23;;;3.67;;
27796;SDS011;15177;50.844;4.412;2023-04-25T07:49:50;13.63;;;3.57;;
27796;SDS011;15177;50.844;4.412;2023-04-25T07:52:16;11.40;;;3.60;;
27796;SDS011;15177;50.844;4.412;2023-04-25T07:54:42;13.10;;;3.67;;
27796;SDS011;15177;50.844;4.412;2023-04-25T07:57:08;17.60;;;3.50;;
27796;SDS011;15177;50.844;4.412;2023-04-25T07:59:35;18.83;;;3.57;;
27796;SDS011;15177;50.844;4.412;2023-04-25T08:02:01;15.23;;;3.93;;
27796;SDS011;15177;50.844;4.412;2023-04-25T08:04:27;14.27;;;3.40;;
27796;SDS011;15177;50.844;4.412;2023-04-25T08:06:53;13.57;;;3.47;;
27796;SDS011;15177;50.844;4.412;2023-04-25T08:09:19;19.17;;;3.67;;
27796;SDS011;15177;50.844;4.412;2023-04-25T08:11:45;11.20;;;3.83;;
27796;SDS011;15177;50.844;4.412;2023-04-25T08:14:12;16.47;;;3.50;;
27796;SDS011;15177;50.844;4.412;2023-04-25T08:16:39;16.57;;;3.53;;
27796;SDS011;15177;50.844;4.412;2023-04-25T08:19:05;18.13;;;4.77;;
27796;SDS011;15177;50.844;4.412;2023-04-25T08:21:31;9.57;;;2.90;;
27796;SDS011;15177;50.844;4.412;2023-04-25T08:23:58;21.50;;;3.50;;
27796;SDS011;15177;50.844;4.412;2023-04-25T08:26:28;12.65;;;3.20;;
27796;SDS011;15177;50.844;4.412;2023-04-25T08:28:54;10.65;;;3.97;;
27796;SDS011;15177;50.844;4.412;2023-04-25T08:31:19;13.40;;;3.70;;
27796;SDS011;15177;50.844;4.412;2023-04-25T08:33:45;17.63;;;3.80;;
27796;SDS011;15177;50.844;4.412;2023-04-25T08:36:11;12.90;;;3.20;;
27796;SDS011;15177;50.844;4.412;2023-04-25T08:38:37;13.55;;;3.50;;
27796;SDS011;15177;50.844;4.412;2023-04-25T08:41:05;13.18;;;2.72;;
27796;SDS011;15177;50.844;4.412;2023-04-25T08:43:31;16.92;;;3.25;;
27796;SDS011;15177;50.844;4.412;2023-04-25T08:46:00;11.88;;;2.85;;
27796;SDS011;15177;50.844;4.412;2023-04-25T08:48:29;8.82;;;3.13;;
27796;SDS011;15177;50.844;4.412;2023-04-25T08:50:59;10.07;;;2.80;;
27796;SDS011;15177;50.844;4.412;2023-04-25T08:53:29;9.65;;;2.70;;
27796;SDS011;15177;50.844;4.412;2023-04-25T08:55:58;12.93;;;2.88;;
27796;SDS011;15177;50.844;4.412;2023-04-25T08:58:26;12.23;;;3.25;;
27796;SDS011;15177;50.844;4.412;2023-04-25T09:00:56;12.98;;;2.85;;
27796;SDS011;15177;50.844;4.412;2023-04-25T09:03:22;10.85;;;3.10;;
27796;SDS011;15177;50.844;4.412;2023-04-25T09:05:48;10.30;;;2.83;;
27796;SDS011;15177;50.844;4.412;2023-04-25T09:08:15;22.45;;;4.85;;
27796;SDS011;15177;50.844;4.412;2023-04-25T09:10:40;16.60;;;3.55;;
27796;SDS011;15177;50.844;4.412;2023-04-25T09:13:07;7.50;;;2.63;;
27796;SDS011;15177;50.844;4.412;2023-04-25T09:15:49;12.18;;;3.35;;
27796;SDS011;15177;50.844;4.412;2023-04-25T09:18:26;8.40;;;2.33;;
27796;SDS011;15177;50.844;4.412;2023-04-25T09:20:53;9.60;;;2.55;;
27796;SDS011;15177;50.844;4.412;2023-04-25T09:23:20;11.90;;;2.53;;
27796;SDS011;15177;50.844;4.412;2023-04-25T09:25:48;16.50;;;3.65;;
27796;SDS011;15177;50.844;4.412;2023-04-25T09:28:14;12.73;;;2.58;;
27796;SDS011;15177;50.844;4.412;2023-04-25T09:30:41;19.42;;;2.65;;
27796;SDS011;15177;50.844;4.412;2023-04-25T09:33:12;14.87;;;2.50;;
27796;SDS011;15177;50.844;4.412;2023-04-25T09:35:39;9.73;;;2.30;;
27796;SDS011;15177;50.844;4.412;2023-04-25T09:38:14;14.83;;;2.47;;
27796;SDS011;15177;50.844;4.412;2023-04-25T09:40:46;16.80;;;3.17;;
27796;SDS011;15177;50.844;4.412;2023-04-25T09:43:18;9.40;;;2.43;;
27796;SDS011;15177;50.844;4.412;2023-04-25T09:45:48;12.97;;;2.20;;
27796;SDS011;15177;50.844;4.412;2023-04-25T09:48:18;6.32;;;2.50;;
27796;SDS011;15177;50.844;4.412;2023-04-25T09:50:47;11.07;;;2.35;;
27796;SDS011;15177;50.844;4.412;2023-04-25T09:53:38;8.68;;;2.35;;
27796;SDS011;15177;50.844;4.412;2023-04-25T09:56:09;12.68;;;2.25;;
27796;SDS011;15177;50.844;4.412;2023-04-25T09:58:37;15.15;;;2.53;;
27796;SDS011;15177;50.844;4.412;2023-04-25T10:01:05;11.48;;;2.55;;
27796;SDS011;15177;50.844;4.412;2023-04-25T10:03:39;13.48;;;2.72;;
27796;SDS011;15177;50.844;4.412;2023-04-25T10:06:12;5.00;;;1.80;;
27796;SDS011;15177;50.844;4.412;2023-04-25T10:08:43;8.15;;;2.15;;
27796;SDS011;15177;50.844;4.412;2023-04-25T10:11:10;7.75;;;3.38;;
27796;SDS011;15177;50.844;4.412;2023-04-25T10:13:39;8.98;;;1.98;;
27796;SDS011;15177;50.844;4.412;2023-04-25T10:16:09;11.55;;;2.65;;
27796;SDS011;15177;50.844;4.412;2023-04-25T10:18:35;6.60;;;2.20;;
27796;SDS011;15177;50.844;4.412;2023-04-25T10:21:03;6.60;;;2.03;;
27796;SDS011;15177;50.844;4.412;2023-04-25T10:23:31;6.50;;;1.40;;
27796;SDS011;15177;50.844;4.412;2023-04-25T10:25:57;9.00;;;1.83;;
27796;SDS011;15177;50.844;4.412;2023-04-25T10:28:23;8.00;;;1.45;;
27796;SDS011;15177;50.844;4.412;2023-04-25T10:31:02;4.65;;;1.65;;
27796;SDS011;15177;50.844;4.412;2023-04-25T10:33:39;4.88;;;1.40;;
27796;SDS011;15177;50.844;4.412;2023-04-25T10:36:14;6.70;;;1.50;;
27796;SDS011;15177;50.844;4.412;2023-04-25T10:38:44;6.50;;;1.63;;
27796;SDS011;15177;50.844;4.412;2023-04-25T10:41:12;6.07;;;1.73;;
27796;SDS011;15177;50.844;4.412;2023-04-25T10:43:42;5.05;;;1.52;;
27796;SDS011;15177;50.844;4.412;2023-04-25T10:46:22;6.88;;;1.65;;
27796;SDS011;15177;50.844;4.412;2023-04-25T10:48:53;8.02;;;1.55;;
27796;SDS011;15177;50.844;4.412;2023-04-25T10:51:31;5.50;;;1.75;;
27796;SDS011;15177;50.844;4.412;2023-04-25T10:54:01;12.27;;;1.75;;
27796;SDS011;15177;50.844;4.412;2023-04-25T10:56:29;4.32;;;1.58;;
27796;SDS011;15177;50.844;4.412;2023-04-25T10:59:05;8.35;;;2.28;;
27796;SDS011;15177;50.844;4.412;2023-04-25T11:01:38;7.68;;;1.88;;
27796;SDS011;15177;50.844;4.412;2023-04-25T11:09:27;8.70;;;1.92;;
27796;SDS011;15177;50.844;4.412;2023-04-25T11:11:54;10.43;;;2.28;;
27796;SDS011;15177;50.844;4.412;2023-04-25T11:14:22;12.63;;;2.15;;
27796;SDS011;15177;50.844;4.412;2023-04-25T11:16:52;9.15;;;1.95;;
27796;SDS011;15177;50.844;4.412;2023-04-25T11:19:22;9.27;;;2.05;;
27796;SDS011;15177;50.844;4.412;2023-04-25T11:21:48;10.80;;;2.72;;
27796;SDS011;15177;50.844;4.412;2023-04-25T11:24:15;6.72;;;2.05;;
27796;SDS011;15177;50.844;4.412;2023-04-25T11:26:42;11.68;;;2.33;;
27796;SDS011;15177;50.844;4.412;2023-04-25T11:29:16;8.82;;;2.42;;
27796;SDS011;15177;50.844;4.412;2023-04-25T11:31:45;5.10;;;1.85;;
27796;SDS011;15177;50.844;4.412;2023-04-25T11:34:10;7.13;;;1.88;;
27796;SDS011;15177;50.844;4.412;2023-04-25T11:36:37;10.43;;;2.17;;
27796;SDS011;15177;50.844;4.412;2023-04-25T11:39:03;7.85;;;2.08;;
27796;SDS011;15177;50.844;4.412;2023-04-25T11:41:31;9.85;;;1.83;;
27796;SDS011;15177;50.844;4.412;2023-04-25T11:43:56;9.02;;;2.20;;
27796;SDS011;15177;50.844;4.412;2023-04-25T11:46:22;8.07;;;1.67;;
27796;SDS011;15177;50.844;4.412;2023-04-25T11:48:48;6.05;;;1.73;;
27796;SDS011;15177;50.844;4.412;2023-04-25T11:51:18;7.22;;;3.05;;
27796;SDS011;15177;50.844;4.412;2023-04-25T11:53:44;8.73;;;1.92;;
27796;SDS011;15177;50.844;4.412;2023-04-25T11:56:10;11.30;;;1.85;;
27796;SDS011;15177;50.844;4.412;2023-04-25T11:58:55;10.43;;;2.38;;
27796;SDS011;15177;50.844;4.412;2023-04-25T12:01:29;7.07;;;1.55;;
27796;SDS011;15177;50.844;4.412;2023-04-25T12:03:57;8.55;;;1.70;;
27796;SDS011;15177;50.844;4.412;2023-04-25T12:06:27;7.10;;;1.73;;
27796;SDS011;15177;50.844;4.412;2023-04-25T12:09:03;6.75;;;1.83;;
27796;SDS011;15177;50.844;4.412;2023-04-25T12:11:30;5.30;;;1.95;;
27796;SDS011;15177;50.844;4.412;2023-04-25T12:14:01;6.13;;;1.77;;
27796;SDS011;15177;50.844;4.412;2023-04-25T12:16:30;5.30;;;1.40;;
27796;SDS011;15177;50.844;4.412;2023-04-25T12:19:05;10.05;;;1.85;;
27796;SDS011;15177;50.844;4.412;2023-04-25T12:21:31;8.82;;;1.90;;
27796;SDS011;15177;50.844;4.412;2023-04-25T12:24:17;6.75;;;1.60;;
27796;SDS011;15177;50.844;4.412;2023-04-25T12:29:35;4.28;;;1.83;;
27796;SDS011;15177;50.844;4.412;2023-04-25T12:32:02;7.32;;;1.80;;
27796;SDS011;15177;50.844;4.412;2023-04-25T12:34:28;4.57;;;1.30;;
27796;SDS011;15177;50.844;4.412;2023-04-25T12:36:53;4.85;;;1.83;;
27796;SDS011;15177;50.844;4.412;2023-04-25T12:39:22;3.13;;;1.00;;
27796;SDS011;15177;50.844;4.412;2023-04-25T12:41:52;3.22;;;1.02;;
27796;SDS011;15177;50.844;4.412;2023-04-25T12:44:22;16.55;;;2.83;;
27796;SDS011;15177;50.844;4.412;2023-04-25T12:46:48;5.40;;;1.25;;
27796;SDS011;15177;50.844;4.412;2023-04-25T12:49:15;6.72;;;1.42;;
27796;SDS011;15177;50.844;4.412;2023-04-25T12:51:41;4.10;;;1.15;;
27796;SDS011;15177;50.844;4.412;2023-04-25T12:54:07;5.90;;;1.52;;
27796;SDS011;15177;50.844;4.412;2023-04-25T12:56:33;5.80;;;1.65;;
27796;SDS011;15177;50.844;4.412;2023-04-25T12:58:59;4.13;;;1.55;;
27796;SDS011;15177;50.844;4.412;2023-04-25T13:01:25;5.72;;;1.17;;
27796;SDS011;15177;50.844;4.412;2023-04-25T13:03:52;7.85;;;1.40;;
27796;SDS011;15177;50.844;4.412;2023-04-25T13:06:18;7.63;;;1.63;;
27796;SDS011;15177;50.844;4.412;2023-04-25T13:08:45;6.05;;;1.52;;
27796;SDS011;15177;50.844;4.412;2023-04-25T13:11:12;9.00;;;1.80;;
27796;SDS011;15177;50.844;4.412;2023-04-25T13:13:39;4.30;;;1.40;;
27796;SDS011;15177;50.844;4.412;2023-04-25T13:16:06;5.47;;;1.90;;
27796;SDS011;15177;50.844;4.412;2023-04-25T13:18:32;7.35;;;1.80;;
27796;SDS011;15177;50.844;4.412;2023-04-25T13:20:58;4.25;;;1.67;;
27796;SDS011;15177;50.844;4.412;2023-04-25T13:23:28;5.85;;;1.27;;
27796;SDS011;15177;50.844;4.412;2023-04-25T13:25:54;4.43;;;1.70;;
27796;SDS011;15177;50.844;4.412;2023-04-25T13:28:22;7.70;;;1.80;;
27796;SDS011;15177;50.844;4.412;2023-04-25T13:30:51;8.20;;;1.80;;
27796;SDS011;15177;50.844;4.412;2023-04-25T13:33:23;4.25;;;1.50;;
27796;SDS011;15177;50.844;4.412;2023-04-25T13:35:49;6.90;;;1.40;;
27796;SDS011;15177;50.844;4.412;2023-04-25T13:38:25;5.90;;;1.40;;
27796;SDS011;15177;50.844;4.412;2023-04-25T13:40:51;5.22;;;1.52;;
27796;SDS011;15177;50.844;4.412;2023-04-25T13:43:18;9.90;;;2.03;;
27796;SDS011;15177;50.844;4.412;2023-04-25T13:45:45;4.80;;;1.30;;
27796;SDS011;15177;50.844;4.412;2023-04-25T13:48:11;3.08;;;1.05;;
27796;SDS011;15177;50.844;4.412;2023-04-25T13:50:36;4.63;;;1.65;;
27796;SDS011;15177;50.844;4.412;2023-04-25T13:53:02;3.72;;;1.35;;
27796;SDS011;15177;50.844;4.412;2023-04-25T13:55:28;6.18;;;1.45;;
27796;SDS011;15177;50.844;4.412;2023-04-25T13:57:53;7.47;;;1.70;;
27796;SDS011;15177;50.844;4.412;2023-04-25T14:00:19;6.13;;;1.70;;
27796;SDS011;15177;50.844;4.412;2023-04-25T14:02:46;7.15;;;1.80;;
27796;SDS011;15177;50.844;4.412;2023-04-25T14:05:12;6.80;;;1.63;;
27796;SDS011;15177;50.844;4.412;2023-04-25T14:07:38;6.03;;;1.50;;
27796;SDS011;15177;50.844;4.412;2023-04-25T14:10:04;8.80;;;1.90;;
27796;SDS011;15177;50.844;4.412;2023-04-25T14:12:32;7.10;;;1.52;;
27796;SDS011;15177;50.844;4.412;2023-04-25T14:14:57;9.93;;;2.03;;
27796;SDS011;15177;50.844;4.412;2023-04-25T14:17:23;6.97;;;1.80;;
27796;SDS011;15177;50.844;4.412;2023-04-25T14:19:49;6.87;;;2.30;;
27796;SDS011;15177;50.844;4.412;2023-04-25T14:22:15;6.80;;;1.40;;
27796;SDS011;15177;50.844;4.412;2023-04-25T14:24:41;6.57;;;1.97;;
27796;SDS011;15177;50.844;4.412;2023-04-25T14:27:07;4.70;;;1.27;;
27796;SDS011;15177;50.844;4.412;2023-04-25T14:29:32;5.68;;;1.52;;
27796;SDS011;15177;50.844;4.412;2023-04-25T14:31:58;5.15;;;1.35;;
27796;SDS011;15177;50.844;4.412;2023-04-25T14:34:24;7.22;;;1.75;;
27796;SDS011;15177;50.844;4.412;2023-04-25T14:36:50;7.00;;;2.25;;
27796;SDS011;15177;50.844;4.412;2023-04-25T14:39:17;4.20;;;1.40;;
27796;SDS011;15177;50.844;4.412;2023-04-25T14:41:43;5.20;;;1.48;;
27796;SDS011;15177;50.844;4.412;2023-04-25T14:44:09;6.07;;;1.80;;
27796;SDS011;15177;50.844;4.412;2023-04-25T14:46:35;6.07;;;1.50;;